Time,TemperatureF,DewpointF,PressureIn,WindDirection,WindDirectionDegrees,WindSpeedMPH,WindSpeedGustMPH,Humidity,HourlyPrecipIn,Conditions,Clouds,dailyrainin,SolarRadiationWatts/m^2,SoftwareType,DateUTC
2013-06-17 00:00:00,64.0,51.0,-100.00,WSW,247,0.0,-999.0,62,-99.99,,,-99.99,0.000000,,2013-06-17 04:00:00,
2013-06-17 00:34:00,64.0,51.0,-100.00,WSW,247,0.0,-999.0,62,-99.99,,,-99.99,0.000000,,2013-06-17 04:34:00,
2013-06-17 00:43:00,64.0,51.0,-100.00,WSW,247,0.0,-999.0,62,-99.99,,,-99.99,0.000000,,2013-06-17 04:43:00,
2013-06-17 00:53:00,64.0,51.0,-100.00,WSW,247,0.0,-999.0,62,-99.99,,,-99.99,0.000000,,2013-06-17 04:53:00,
2013-06-17 01:00:00,61.0,52.0,-100.00,SW,225,0.0,-999.0,73,-99.99,,,-99.99,0.000000,,2013-06-17 05:00:00,
2013-06-17 01:33:00,61.0,52.0,-100.00,SW,225,0.0,-999.0,73,-99.99,,,-99.99,0.000000,,2013-06-17 05:33:00,
2013-06-17 01:44:00,61.0,52.0,-100.00,SW,225,0.0,-999.0,73,-99.99,,,-99.99,0.000000,,2013-06-17 05:44:00,
2013-06-17 01:53:00,61.0,52.0,-100.00,SW,225,0.0,-999.0,73,-99.99,,,-99.99,0.000000,,2013-06-17 05:53:00,
2013-06-17 02:00:00,61.0,52.0,-100.00,SW,225,0.0,-999.0,74,-99.99,,,-99.99,0.000000,,2013-06-17 06:00:00,
2013-06-17 02:33:00,61.0,52.0,-100.00,SW,225,0.0,-999.0,74,-99.99,,,-99.99,0.000000,,2013-06-17 06:33:00,
2013-06-17 02:43:00,61.0,52.0,-100.00,SW,225,0.0,-999.0,74,-99.99,,,-99.99,0.000000,,2013-06-17 06:43:00,
2013-06-17 02:53:00,61.0,52.0,-100.00,SW,225,0.0,-999.0,74,-99.99,,,-99.99,0.000000,,2013-06-17 06:53:00,
2013-06-17 03:00:00,59.0,52.0,-100.00,SW,225,0.0,-999.0,77,-99.99,,,-99.99,0.000000,,2013-06-17 07:00:00,
2013-06-17 03:33:00,59.0,52.0,-100.00,SW,225,0.0,-999.0,77,-99.99,,,-99.99,0.000000,,2013-06-17 07:33:00,
2013-06-17 03:43:00,59.0,52.0,-100.00,SW,225,0.0,-999.0,77,-99.99,,,-99.99,0.000000,,2013-06-17 07:43:00,
2013-06-17 03:53:00,59.0,52.0,-100.00,SW,225,0.0,-999.0,77,-99.99,,,-99.99,0.000000,,2013-06-17 07:53:00,
2013-06-17 04:00:00,60.0,52.0,-100.00,SSW,202,0.0,-999.0,74,-99.99,,,-99.99,0.000000,,2013-06-17 08:00:00,
2013-06-17 04:34:00,60.0,52.0,-100.00,SSW,202,0.0,-999.0,74,-99.99,,,-99.99,0.000000,,2013-06-17 08:34:00,
2013-06-17 04:43:00,60.0,52.0,-100.00,SSW,202,0.0,-999.0,74,-99.99,,,-99.99,0.000000,,2013-06-17 08:43:00,
2013-06-17 04:53:00,60.0,52.0,-100.00,SSW,202,0.0,-999.0,74,-99.99,,,-99.99,0.000000,,2013-06-17 08:53:00,
2013-06-17 05:00:00,58.0,52.0,-100.00,WSW,247,0.0,-999.0,80,-99.99,,,-99.99,0.000000,,2013-06-17 09:00:00,
2013-06-17 05:34:00,58.0,52.0,-100.00,WSW,247,0.0,-999.0,80,-99.99,,,-99.99,0.000000,,2013-06-17 09:34:00,
2013-06-17 05:44:00,58.0,52.0,-100.00,WSW,247,0.0,-999.0,80,-99.99,,,-99.99,0.000000,,2013-06-17 09:44:00,
2013-06-17 05:53:00,58.0,52.0,-100.00,WSW,247,0.0,-999.0,80,-99.99,,,-99.99,0.000000,,2013-06-17 09:53:00,
2013-06-17 06:00:00,57.0,52.0,-100.00,SW,225,1.0,-999.0,83,-99.99,,,-99.99,1.160000,,2013-06-17 10:00:00,
2013-06-17 06:33:00,57.0,52.0,-100.00,SW,225,1.0,-999.0,83,-99.99,,,-99.99,1.160000,,2013-06-17 10:33:00,
2013-06-17 06:43:00,57.0,52.0,-100.00,SW,225,1.0,-999.0,83,-99.99,,,-99.99,1.160000,,2013-06-17 10:43:00,
2013-06-17 06:54:00,57.0,52.0,-100.00,SW,225,1.0,-999.0,83,-99.99,,,-99.99,1.160000,,2013-06-17 10:54:00,
2013-06-17 07:00:00,58.0,52.0,-100.00,SW,225,0.0,-999.0,81,-99.99,,,-99.99,15.080000,,2013-06-17 11:00:00,
2013-06-17 07:33:00,58.0,52.0,-100.00,SW,225,0.0,-999.0,81,-99.99,,,-99.99,15.080000,,2013-06-17 11:33:00,
2013-06-17 07:43:00,58.0,52.0,-100.00,SW,225,0.0,-999.0,81,-99.99,,,-99.99,15.080000,,2013-06-17 11:43:00,
2013-06-17 07:53:00,58.0,52.0,-100.00,SW,225,0.0,-999.0,81,-99.99,,,-99.99,15.080000,,2013-06-17 11:53:00,
2013-06-17 08:00:00,62.0,54.0,-100.00,SW,225,0.0,-999.0,76,-99.99,,,-99.99,177.479996,,2013-06-17 12:00:00,
2013-06-17 08:33:00,62.0,54.0,-100.00,SW,225,0.0,-999.0,76,-99.99,,,-99.99,177.479996,,2013-06-17 12:33:00,
2013-06-17 08:43:00,62.0,54.0,-100.00,SW,225,0.0,-999.0,76,-99.99,,,-99.99,177.479996,,2013-06-17 12:43:00,
2013-06-17 08:53:00,62.0,54.0,-100.00,SW,225,0.0,-999.0,76,-99.99,,,-99.99,177.479996,,2013-06-17 12:53:00,
2013-06-17 09:00:00,67.0,56.0,-100.00,SW,225,0.0,-999.0,67,-99.99,,,-99.99,338.720001,,2013-06-17 13:00:00,
2013-06-17 09:33:00,67.0,56.0,-100.00,SW,225,0.0,-999.0,67,-99.99,,,-99.99,338.720001,,2013-06-17 13:33:00,
2013-06-17 09:43:00,67.0,56.0,-100.00,SW,225,0.0,-999.0,67,-99.99,,,-99.99,338.720001,,2013-06-17 13:43:00,
2013-06-17 09:53:00,67.0,56.0,-100.00,SW,225,0.0,-999.0,67,-99.99,,,-99.99,338.720001,,2013-06-17 13:53:00,
2013-06-17 10:00:00,72.0,56.0,-100.00,West,270,1.0,-999.0,57,-99.99,,,-99.99,495.320007,,2013-06-17 14:00:00,
2013-06-17 10:44:00,72.0,56.0,-100.00,West,270,1.0,-999.0,57,-99.99,,,-99.99,495.320007,,2013-06-17 14:44:00,
2013-06-17 10:54:00,72.0,56.0,-100.00,West,270,1.0,-999.0,57,-99.99,,,-99.99,495.320007,,2013-06-17 14:54:00,
2013-06-17 11:00:00,75.0,57.0,-100.00,SW,225,1.0,-999.0,53,-99.99,,,-99.99,644.960022,,2013-06-17 15:00:00,
2013-06-17 11:43:00,75.0,57.0,-100.00,SW,225,1.0,-999.0,53,-99.99,,,-99.99,644.960022,,2013-06-17 15:43:00,
2013-06-17 11:53:00,75.0,57.0,-100.00,SW,225,1.0,-999.0,53,-99.99,,,-99.99,644.960022,,2013-06-17 15:53:00,
2013-06-17 12:00:00,76.0,55.0,-100.00,West,270,2.0,-999.0,49,-99.99,,,-99.99,759.799988,,2013-06-17 16:00:00,
2013-06-17 12:43:00,76.0,55.0,-100.00,West,270,2.0,-999.0,49,-99.99,,,-99.99,759.799988,,2013-06-17 16:43:00,
2013-06-17 12:54:00,76.0,55.0,-100.00,West,270,2.0,-999.0,49,-99.99,,,-99.99,759.799988,,2013-06-17 16:54:00,
2013-06-17 13:00:00,78.0,56.0,-100.00,West,270,2.0,-999.0,47,-99.99,,,-99.99,756.320007,,2013-06-17 17:00:00,
2013-06-17 13:43:00,78.0,56.0,-100.00,West,270,2.0,-999.0,47,-99.99,,,-99.99,756.320007,,2013-06-17 17:43:00,
2013-06-17 13:52:00,78.0,56.0,-100.00,West,270,2.0,-999.0,47,-99.99,,,-99.99,756.320007,,2013-06-17 17:52:00,
2013-06-17 14:00:00,79.0,54.0,-100.00,SW,225,1.0,-999.0,42,-99.99,,,-99.99,788.799988,,2013-06-17 18:00:00,
2013-06-17 14:43:00,79.0,54.0,-100.00,SW,225,1.0,-999.0,42,-99.99,,,-99.99,788.799988,,2013-06-17 18:43:00,
2013-06-17 14:53:00,79.0,54.0,-100.00,SW,225,1.0,-999.0,42,-99.99,,,-99.99,788.799988,,2013-06-17 18:53:00,
2013-06-17 15:00:00,80.0,55.0,-100.00,SW,225,2.0,-999.0,41,-99.99,,,-99.99,799.239990,,2013-06-17 19:00:00,
2013-06-17 15:43:00,80.0,55.0,-100.00,SW,225,2.0,-999.0,41,-99.99,,,-99.99,799.239990,,2013-06-17 19:43:00,
2013-06-17 15:54:00,80.0,55.0,-100.00,SW,225,2.0,-999.0,41,-99.99,,,-99.99,799.239990,,2013-06-17 19:54:00,
2013-06-17 16:00:00,82.0,52.0,-100.00,WSW,247,6.0,-999.0,35,-99.99,,,-99.99,742.400024,,2013-06-17 20:00:00,
2013-06-17 16:43:00,82.0,52.0,-100.00,WSW,247,6.0,-999.0,35,-99.99,,,-99.99,742.400024,,2013-06-17 20:43:00,
2013-06-17 16:52:00,82.0,52.0,-100.00,WSW,247,6.0,-999.0,35,-99.99,,,-99.99,742.400024,,2013-06-17 20:52:00,
2013-06-17 17:00:00,83.0,51.0,-100.00,WSW,247,5.0,-999.0,33,-99.99,,,-99.99,639.159973,,2013-06-17 21:00:00,
2013-06-17 17:43:00,83.0,51.0,-100.00,WSW,247,5.0,-999.0,33,-99.99,,,-99.99,639.159973,,2013-06-17 21:43:00,
2013-06-17 17:52:00,83.0,51.0,-100.00,WSW,247,5.0,-999.0,33,-99.99,,,-99.99,639.159973,,2013-06-17 21:52:00,
2013-06-17 18:00:00,79.0,55.0,-100.00,South,180,2.0,-999.0,43,-99.99,,,-99.99,445.440002,,2013-06-17 22:00:00,
2013-06-17 18:34:00,79.0,55.0,-100.00,South,180,2.0,-999.0,43,-99.99,,,-99.99,445.440002,,2013-06-17 22:34:00,
2013-06-17 18:43:00,79.0,55.0,-100.00,South,180,2.0,-999.0,43,-99.99,,,-99.99,445.440002,,2013-06-17 22:43:00,
2013-06-17 18:53:00,79.0,55.0,-100.00,South,180,2.0,-999.0,43,-99.99,,,-99.99,445.440002,,2013-06-17 22:53:00,
2013-06-17 19:00:00,73.0,58.0,-100.00,East,90,4.0,-999.0,59,-99.99,,,-99.99,236.639999,,2013-06-17 23:00:00,
2013-06-17 19:33:00,73.0,58.0,-100.00,East,90,4.0,-999.0,59,-99.99,,,-99.99,236.639999,,2013-06-17 23:33:00,
2013-06-17 19:43:00,73.0,58.0,-100.00,East,90,4.0,-999.0,59,-99.99,,,-99.99,236.639999,,2013-06-17 23:43:00,
2013-06-17 19:53:00,73.0,58.0,-100.00,East,90,4.0,-999.0,59,-99.99,,,-99.99,236.639999,,2013-06-17 23:53:00,
2013-06-17 20:00:00,71.0,58.0,-100.00,East,90,2.0,-999.0,63,-99.99,,,-99.99,138.039993,,2013-06-18 00:00:00,
2013-06-17 20:33:00,71.0,58.0,-100.00,East,90,2.0,-999.0,63,-99.99,,,-99.99,138.039993,,2013-06-18 00:33:00,
2013-06-17 20:43:00,71.0,58.0,-100.00,East,90,2.0,-999.0,63,-99.99,,,-99.99,138.039993,,2013-06-18 00:43:00,
2013-06-17 20:52:00,71.0,58.0,-100.00,East,90,2.0,-999.0,63,-99.99,,,-99.99,138.039993,,2013-06-18 00:52:00,
2013-06-17 21:00:00,69.0,57.0,-100.00,ESE,112,3.0,-999.0,65,-99.99,,,-99.99,35.959999,,2013-06-18 01:00:00,
2013-06-17 21:44:00,69.0,57.0,-100.00,ESE,112,3.0,-999.0,65,-99.99,,,-99.99,35.959999,,2013-06-18 01:44:00,
2013-06-17 21:53:00,69.0,57.0,-100.00,ESE,112,3.0,-999.0,65,-99.99,,,-99.99,35.959999,,2013-06-18 01:53:00,
2013-06-17 22:00:00,64.0,55.0,-100.00,East,90,2.0,-999.0,72,-99.99,,,-99.99,2.320000,,2013-06-18 02:00:00,
2013-06-17 22:43:00,64.0,55.0,-100.00,East,90,2.0,-999.0,72,-99.99,,,-99.99,2.320000,,2013-06-18 02:43:00,
2013-06-17 22:53:00,64.0,55.0,-100.00,East,90,2.0,-999.0,72,-99.99,,,-99.99,2.320000,,2013-06-18 02:53:00,
2013-06-17 23:00:00,63.0,54.0,-100.00,SE,135,1.0,-999.0,73,-99.99,,,-99.99,0.000000,,2013-06-18 03:00:00,
2013-06-17 23:43:00,63.0,54.0,-100.00,SE,135,1.0,-999.0,73,-99.99,,,-99.99,0.000000,,2013-06-18 03:43:00,
2013-06-17 23:53:00,63.0,54.0,-100.00,SE,135,1.0,-999.0,73,-99.99,,,-99.99,0.000000,,2013-06-18 03:53:00,